Time;durP1;ratioP1;P1;durP2;ratioP2;P2;SDS_P1;SDS_P2;PMS_P1;PMS_P2;Temp;Humidity;BMP_temperature;BMP_pressure;BME280_temperature;BME280_humidity;BME280_pressure;Samples;Min_cycle;Max_cycle;Signal;HPM_P1;HPM_P2
2023/07/31 00:01:26;;;;;;;5.23;2.90;;;17.70;99.90;;;;;;5018223;28;20518;-92
2023/07/31 00:03:52;;;;;;;8.30;2.77;;;17.90;99.90;;;;;;5018383;28;20709;-92
2023/07/31 00:06:19;;;;;;;7.30;2.87;;;17.80;99.90;;;;;;4987029;28;20499;-90
2023/07/31 00:08:46;;;;;;;7.63;3.00;;;17.80;99.90;;;;;;4987138;28;20836;-91
2023/07/31 00:11:14;;;;;;;5.23;3.07;;;17.80;99.90;;;;;;4977578;28;20522;-90
2023/07/31 00:13:40;;;;;;;6.90;3.10;;;17.80;99.90;;;;;;4993168;28;20451;-89
2023/07/31 00:16:07;;;;;;;8.50;3.03;;;17.70;99.90;;;;;;4993053;28;20418;-91
2023/07/31 00:18:34;;;;;;;7.70;2.87;;;17.70;99.90;;;;;;4992966;28;20467;-89
2023/07/31 00:21:00;;;;;;;7.40;3.00;;;17.70;99.90;;;;;;4992960;28;20459;-90
2023/07/31 00:23:27;;;;;;;8.23;3.33;;;17.70;99.90;;;;;;4992931;28;20462;-89
2023/07/31 00:25:54;;;;;;;10.17;2.80;;;17.70;99.90;;;;;;4993059;28;20941;-90
2023/07/31 00:28:22;;;;;;;10.90;3.13;;;17.70;99.90;;;;;;4993004;28;20453;-89
2023/07/31 00:30:48;;;;;;;7.07;2.87;;;17.60;99.90;;;;;;4991969;28;20465;-90
2023/07/31 00:33:15;;;;;;;3.63;2.93;;;17.60;99.90;;;;;;4992871;28;20451;-90
2023/07/31 00:35:42;;;;;;;11.27;2.83;;;17.60;99.90;;;;;;4993066;28;20460;-90
2023/07/31 00:38:08;;;;;;;6.10;3.20;;;17.50;99.90;;;;;;4992831;28;20512;-90
2023/07/31 00:40:37;;;;;;;3.40;2.90;;;17.50;99.90;;;;;;4985192;28;20517;-89
2023/07/31 00:43:04;;;;;;;5.43;2.83;;;17.50;99.90;;;;;;4993108;28;20537;-90
2023/07/31 00:45:33;;;;;;;4.23;2.60;;;17.50;99.90;;;;;;4992856;28;20919;-90
2023/07/31 00:48:00;;;;;;;4.37;2.50;;;17.40;99.90;;;;;;4992542;28;20517;-90
2023/07/31 00:50:27;;;;;;;4.60;3.20;;;17.40;99.90;;;;;;4977406;28;20463;-91
2023/07/31 00:52:54;;;;;;;3.00;2.57;;;17.40;99.90;;;;;;4992715;28;20996;-89
2023/07/31 00:55:22;;;;;;;7.57;3.07;;;17.20;99.90;;;;;;4983695;28;20523;-90
2023/07/31 00:57:50;;;;;;;5.17;3.00;;;17.30;99.90;;;;;;4986769;28;20825;-90
2023/07/31 01:00:16;;;;;;;12.37;3.40;;;17.20;99.90;;;;;;4992655;28;20918;-90
2023/07/31 01:02:45;;;;;;;7.47;2.80;;;17.20;99.90;;;;;;4980611;28;20455;-90
2023/07/31 01:05:11;;;;;;;6.40;2.77;;;17.10;99.90;;;;;;4989269;28;20514;-89
2023/07/31 01:07:45;;;;;;;8.63;3.20;;;17.10;99.90;;;;;;4977871;28;20504;-90
2023/07/31 01:10:17;;;;;;;4.77;2.87;;;17.10;99.90;;;;;;4992486;28;20463;-89
2023/07/31 01:12:46;;;;;;;6.80;3.00;;;17.10;99.90;;;;;;4962627;28;20425;-90
2023/07/31 01:15:14;;;;;;;11.67;3.37;;;17.10;99.90;;;;;;4992340;28;20550;-89
2023/07/31 01:17:43;;;;;;;11.70;3.60;;;17.00;99.90;;;;;;4976573;28;20475;-90
2023/07/31 01:20:13;;;;;;;5.40;2.87;;;17.00;99.90;;;;;;4992711;28;20463;-89
2023/07/31 01:23:12;;;;;;;9.90;3.10;;;17.00;99.90;;;;;;4992674;28;20458;-90
2023/07/31 01:26:00;;;;;;;8.20;2.97;;;17.00;99.90;;;;;;4981161;28;20452;-89
2023/07/31 01:28:38;;;;;;;5.27;3.00;;;17.00;99.90;;;;;;4981070;28;20458;-90
2023/07/31 01:31:08;;;;;;;7.80;3.03;;;17.00;99.90;;;;;;4980448;28;20410;-90
2023/07/31 01:33:36;;;;;;;7.13;3.40;;;17.00;99.90;;;;;;4979443;28;20434;-89
2023/07/31 01:36:03;;;;;;;6.10;3.27;;;17.00;99.90;;;;;;4990225;28;20473;-90
2023/07/31 01:38:29;;;;;;;11.23;3.40;;;17.00;99.90;;;;;;4986580;28;21055;-89
2023/07/31 01:40:57;;;;;;;6.77;3.13;;;17.00;99.90;;;;;;4996317;28;20945;-90
2023/07/31 01:43:24;;;;;;;7.40;2.70;;;17.10;99.90;;;;;;4995200;28;20549;-90
2023/07/31 01:45:51;;;;;;;10.40;2.83;;;17.10;99.90;;;;;;4977449;28;20430;-90
2023/07/31 01:48:18;;;;;;;7.37;3.43;;;17.20;99.90;;;;;;4992835;28;20561;-90
2023/07/31 01:50:44;;;;;;;4.70;3.37;;;17.10;99.90;;;;;;4980204;28;20517;-90
2023/07/31 01:53:12;;;;;;;8.53;3.00;;;17.10;99.90;;;;;;4996138;28;20425;-89
2023/07/31 01:55:38;;;;;;;10.93;3.00;;;17.10;99.90;;;;;;4988483;28;20952;-90
2023/07/31 01:58:06;;;;;;;6.63;3.20;;;17.10;99.90;;;;;;4996374;28;20538;-90
2023/07/31 02:00:33;;;;;;;4.67;2.63;;;17.20;99.90;;;;;;4993809;28;20533;-90
2023/07/31 02:03:00;;;;;;;4.50;3.30;;;17.20;99.90;;;;;;4976722;28;20462;-90
2023/07/31 02:05:27;;;;;;;12.93;3.70;;;17.20;99.90;;;;;;4992606;28;20948;-90
2023/07/31 02:07:53;;;;;;;5.93;3.10;;;17.20;99.90;;;;;;4981461;28;20482;-89
2023/07/31 02:10:20;;;;;;;6.70;2.90;;;17.20;99.90;;;;;;4995710;28;20414;-90
2023/07/31 02:12:47;;;;;;;5.37;3.07;;;17.30;99.90;;;;;;4984043;28;20435;-91
2023/07/31 02:15:15;;;;;;;6.47;3.10;;;17.30;99.90;;;;;;4992068;28;20454;-90
2023/07/31 02:17:41;;;;;;;9.83;3.00;;;17.30;99.90;;;;;;4976399;28;20479;-90
2023/07/31 02:20:09;;;;;;;3.73;2.83;;;17.30;99.90;;;;;;4990857;28;20414;-90
2023/07/31 02:22:36;;;;;;;6.30;3.40;;;17.30;99.90;;;;;;4979611;28;20458;-90
2023/07/31 02:25:03;;;;;;;5.93;3.10;;;17.30;99.90;;;;;;4996138;28;20944;-90
2023/07/31 02:27:29;;;;;;;6.30;3.27;;;17.40;99.90;;;;;;4995441;28;20447;-90
2023/07/31 02:29:57;;;;;;;9.63;3.30;;;17.40;99.90;;;;;;4995820;28;20533;-90
2023/07/31 02:32:25;;;;;;;5.57;3.20;;;17.40;99.90;;;;;;4993524;28;20748;-89
2023/07/31 02:34:52;;;;;;;9.23;3.00;;;17.30;99.90;;;;;;4995327;28;20466;-90
2023/07/31 02:37:19;;;;;;;7.53;3.50;;;17.40;99.90;;;;;;4987591;28;20463;-89
2023/07/31 02:39:46;;;;;;;7.20;3.00;;;17.30;99.90;;;;;;4995838;28;20438;-90
2023/07/31 02:42:14;;;;;;;5.20;3.13;;;17.30;99.90;;;;;;4994944;28;20546;-90
2023/07/31 02:44:41;;;;;;;6.67;3.40;;;17.30;99.90;;;;;;4983984;28;20436;-91
2023/07/31 02:47:08;;;;;;;6.27;3.70;;;17.40;99.90;;;;;;4990394;28;20990;-90
2023/07/31 02:49:36;;;;;;;8.00;3.67;;;17.40;99.90;;;;;;4986602;28;20459;-90
2023/07/31 02:52:04;;;;;;;7.27;3.00;;;17.40;99.90;;;;;;4995009;28;20498;-91
2023/07/31 02:54:30;;;;;;;5.10;3.47;;;17.40;99.90;;;;;;4986146;28;20546;-91
2023/07/31 02:56:57;;;;;;;8.93;3.63;;;17.40;99.90;;;;;;4980765;28;20448;-89
2023/07/31 02:59:25;;;;;;;9.63;3.70;;;17.40;99.90;;;;;;4995280;28;21183;-90
2023/07/31 03:01:51;;;;;;;7.13;3.00;;;17.60;99.90;;;;;;4983184;28;20511;-90
2023/07/31 03:04:18;;;;;;;7.23;3.50;;;17.50;99.90;;;;;;4983942;28;20463;-91
2023/07/31 03:06:46;;;;;;;8.70;3.43;;;17.40;99.90;;;;;;4988025;28;20443;-92
2023/07/31 03:09:13;;;;;;;5.43;3.50;;;17.40;99.90;;;;;;5015063;28;20475;-92
2023/07/31 03:11:39;;;;;;;7.17;3.00;;;17.40;99.90;;;;;;5019042;28;20447;-91
2023/07/31 03:14:06;;;;;;;7.43;3.27;;;17.40;99.90;;;;;;4988795;28;20868;-91
2023/07/31 03:16:33;;;;;;;15.00;4.13;;;17.40;99.90;;;;;;5001303;28;20447;-93
2023/07/31 03:18:59;;;;;;;7.10;3.40;;;17.40;99.90;;;;;;4993353;28;20517;-90
2023/07/31 03:21:26;;;;;;;7.23;3.30;;;17.30;99.90;;;;;;4993998;28;20961;-89
2023/07/31 03:23:54;;;;;;;6.00;3.70;;;17.30;99.90;;;;;;4995026;28;20479;-91
2023/07/31 03:26:21;;;;;;;8.23;3.70;;;17.40;99.90;;;;;;4995071;28;20438;-90
2023/07/31 03:28:49;;;;;;;5.63;3.67;;;17.30;99.90;;;;;;4994805;28;20871;-91
2023/07/31 03:31:16;;;;;;;7.50;3.90;;;17.30;99.90;;;;;;4992124;28;20474;-90
2023/07/31 03:33:42;;;;;;;4.33;3.10;;;17.30;99.90;;;;;;4984536;28;20430;-90
2023/07/31 03:36:09;;;;;;;4.63;3.67;;;17.40;99.90;;;;;;4989933;28;20486;-90
2023/07/31 03:38:36;;;;;;;7.20;3.50;;;17.40;99.90;;;;;;4995034;28;20487;-90
2023/07/31 03:41:06;;;;;;;7.70;3.73;;;17.40;99.90;;;;;;4989453;28;20510;-90
2023/07/31 03:43:33;;;;;;;5.30;3.47;;;17.40;99.90;;;;;;4984351;28;20594;-90
2023/07/31 03:46:00;;;;;;;5.87;3.07;;;17.40;99.90;;;;;;4981844;28;20459;-90
2023/07/31 03:48:27;;;;;;;6.33;3.70;;;17.40;99.90;;;;;;4983382;28;20476;-91
2023/07/31 03:50:53;;;;;;;6.80;4.87;;;17.40;99.90;;;;;;4986292;28;20491;-90
2023/07/31 03:53:20;;;;;;;4.93;3.43;;;17.50;99.90;;;;;;4995035;28;20453;-90
2023/07/31 03:55:47;;;;;;;8.13;4.00;;;17.40;99.90;;;;;;4985899;28;20962;-90
2023/07/31 03:58:15;;;;;;;7.30;3.70;;;17.40;99.90;;;;;;4979581;28;20484;-90
2023/07/31 04:00:42;;;;;;;5.00;3.47;;;17.30;99.90;;;;;;4991149;28;20451;-90
2023/07/31 04:03:08;;;;;;;7.17;3.20;;;17.30;99.90;;;;;;4988810;28;20514;-90
2023/07/31 04:05:39;;;;;;;5.80;4.00;;;17.30;99.90;;;;;;4992253;28;20442;-90
2023/07/31 04:08:06;;;;;;;8.57;3.73;;;17.40;99.90;;;;;;4988144;28;20499;-90
2023/07/31 04:10:33;;;;;;;6.53;4.20;;;17.20;99.90;;;;;;4977694;28;20459;-90
2023/07/31 04:13:00;;;;;;;5.77;4.63;;;17.30;99.90;;;;;;4994238;28;20466;-91
2023/07/31 04:15:28;;;;;;;10.57;3.93;;;17.30;99.90;;;;;;4993870;28;20459;-91
2023/07/31 04:17:55;;;;;;;6.60;3.97;;;17.20;99.90;;;;;;4993943;28;20470;-91
2023/07/31 04:20:22;;;;;;;9.10;4.30;;;17.20;99.90;;;;;;4985985;28;20501;-91
2023/07/31 04:22:48;;;;;;;7.10;3.97;;;17.20;99.90;;;;;;4985231;28;20548;-91
2023/07/31 04:25:15;;;;;;;8.03;3.90;;;17.20;99.90;;;;;;4993663;28;20864;-90
2023/07/31 04:27:42;;;;;;;7.17;3.93;;;17.30;99.90;;;;;;4977269;28;20898;-91
2023/07/31 04:30:09;;;;;;;7.50;3.60;;;17.20;99.90;;;;;;4992261;28;20480;-91
2023/07/31 04:32:37;;;;;;;7.77;4.17;;;17.20;99.90;;;;;;4975040;28;20452;-90
2023/07/31 04:35:05;;;;;;;10.27;4.10;;;17.10;99.90;;;;;;4993000;28;20476;-91
2023/07/31 04:37:32;;;;;;;4.93;3.60;;;17.20;99.90;;;;;;4993252;28;20866;-92
2023/07/31 04:39:58;;;;;;;6.40;3.60;;;17.30;99.90;;;;;;4994387;28;20510;-91
2023/07/31 04:42:25;;;;;;;5.67;3.37;;;17.30;99.90;;;;;;4993107;28;20517;-91
2023/07/31 04:44:52;;;;;;;6.20;3.80;;;17.20;99.90;;;;;;4981750;28;20415;-91
2023/07/31 04:47:19;;;;;;;5.37;3.60;;;17.30;99.90;;;;;;4988066;28;20948;-89
2023/07/31 04:49:47;;;;;;;3.80;2.90;;;17.30;99.90;;;;;;4983513;28;20460;-91
2023/07/31 04:52:14;;;;;;;5.53;3.90;;;17.30;99.90;;;;;;4993182;28;20510;-90
2023/07/31 04:54:41;;;;;;;10.50;3.77;;;17.30;99.90;;;;;;4991964;28;20513;-90
2023/07/31 04:57:08;;;;;;;3.93;2.90;;;17.30;99.90;;;;;;4979254;28;20425;-90
2023/07/31 04:59:34;;;;;;;4.90;3.87;;;17.40;99.90;;;;;;4993005;28;20468;-90
2023/07/31 05:02:01;;;;;;;7.00;3.47;;;17.40;99.90;;;;;;4993332;28;20504;-90
2023/07/31 05:04:28;;;;;;;8.03;3.07;;;17.40;99.90;;;;;;4985881;28;20462;-90
2023/07/31 05:06:56;;;;;;;6.43;3.80;;;17.40;99.90;;;;;;4983564;28;20430;-91
2023/07/31 05:09:22;;;;;;;5.17;3.70;;;17.50;99.90;;;;;;4993263;28;20896;-91
2023/07/31 05:11:49;;;;;;;4.57;3.63;;;17.50;99.90;;;;;;4992289;28;20855;-91
2023/07/31 05:14:16;;;;;;;7.10;3.33;;;17.50;99.90;;;;;;4978470;28;20480;-91
2023/07/31 05:16:42;;;;;;;6.73;3.90;;;17.50;99.90;;;;;;4991007;28;20554;-91
2023/07/31 05:19:09;;;;;;;6.80;4.00;;;17.50;99.90;;;;;;4992748;28;20479;-91
2023/07/31 05:21:36;;;;;;;6.50;3.57;;;17.50;99.90;;;;;;4992430;28;20510;-91
2023/07/31 05:24:06;;;;;;;7.50;3.30;;;17.50;99.90;;;;;;4992748;28;20486;-91
2023/07/31 05:26:32;;;;;;;6.00;3.50;;;17.60;99.90;;;;;;4992739;28;20467;-92
2023/07/31 05:28:59;;;;;;;10.30;3.50;;;17.60;99.90;;;;;;4992723;28;20522;-91
2023/07/31 05:31:26;;;;;;;6.67;3.70;;;17.60;99.90;;;;;;4984746;28;20513;-91
2023/07/31 05:33:52;;;;;;;4.97;3.70;;;17.60;99.90;;;;;;4993412;28;20486;-92
2023/07/31 05:36:19;;;;;;;5.90;3.10;;;17.60;99.90;;;;;;4993837;28;20446;-92
2023/07/31 05:38:46;;;;;;;5.83;3.50;;;17.60;99.90;;;;;;4993842;28;20471;-91
2023/07/31 05:41:14;;;;;;;6.40;3.90;;;17.60;99.90;;;;;;5008027;28;20459;-93
2023/07/31 05:43:41;;;;;;;8.93;3.20;;;17.50;99.90;;;;;;4995261;28;20970;-90
2023/07/31 05:46:09;;;;;;;5.87;3.40;;;17.70;99.90;;;;;;4989187;28;20455;-91
2023/07/31 05:48:35;;;;;;;5.83;3.67;;;17.60;99.90;;;;;;4990579;28;20541;-91
2023/07/31 05:51:02;;;;;;;5.03;3.70;;;17.60;99.90;;;;;;4973366;28;20974;-92
2023/07/31 05:53:29;;;;;;;5.00;2.80;;;17.60;99.90;;;;;;4989088;28;20426;-92
2023/07/31 05:55:55;;;;;;;3.93;3.30;;;17.70;99.90;;;;;;4993175;28;20434;-90
2023/07/31 05:58:24;;;;;;;7.50;3.40;;;17.70;99.90;;;;;;4992741;28;20450;-91
2023/07/31 06:00:51;;;;;;;5.40;3.57;;;17.80;99.90;;;;;;4984713;28;20470;-90
2023/07/31 06:03:17;;;;;;;4.40;3.23;;;17.70;99.90;;;;;;4995925;28;20479;-91
2023/07/31 06:05:44;;;;;;;6.27;3.27;;;17.80;99.90;;;;;;4990698;28;20452;-90
2023/07/31 06:08:11;;;;;;;3.93;3.10;;;17.90;99.90;;;;;;4986728;28;20562;-91
2023/07/31 06:10:38;;;;;;;5.93;3.20;;;17.90;99.90;;;;;;4993689;28;20869;-91
2023/07/31 06:13:05;;;;;;;4.33;3.60;;;17.90;99.90;;;;;;4994644;28;20457;-90
2023/07/31 06:15:33;;;;;;;8.20;3.60;;;17.90;99.90;;;;;;5010140;28;20451;-93
2023/07/31 06:18:01;;;;;;;7.90;3.63;;;18.00;99.90;;;;;;5018523;28;20461;-92
2023/07/31 06:20:28;;;;;;;4.70;3.00;;;18.00;99.90;;;;;;5006034;28;20494;-90
2023/07/31 06:22:55;;;;;;;7.37;3.33;;;18.00;99.90;;;;;;4995168;28;20433;-90
2023/07/31 06:25:22;;;;;;;8.20;3.43;;;18.10;99.90;;;;;;4992996;28;20498;-91
2023/07/31 06:27:48;;;;;;;6.43;3.60;;;18.20;99.90;;;;;;4989813;28;20527;-92
2023/07/31 06:30:15;;;;;;;9.67;4.27;;;18.20;99.90;;;;;;4984281;28;20431;-91
2023/07/31 06:32:43;;;;;;;4.80;3.53;;;18.20;99.90;;;;;;4993770;28;20463;-88
2023/07/31 06:35:10;;;;;;;6.90;3.47;;;18.20;99.90;;;;;;4991757;28;20466;-91
2023/07/31 06:37:37;;;;;;;7.90;3.70;;;18.20;99.90;;;;;;4984785;28;20467;-91
2023/07/31 06:40:05;;;;;;;6.67;3.43;;;18.20;99.90;;;;;;4995988;28;20443;-90
2023/07/31 06:42:32;;;;;;;6.20;3.77;;;18.20;99.90;;;;;;4980008;28;20486;-91
2023/07/31 06:44:58;;;;;;;5.80;3.67;;;18.20;99.90;;;;;;4984271;28;20660;-90
2023/07/31 06:47:25;;;;;;;6.97;3.50;;;18.20;99.90;;;;;;4990743;28;20514;-91
2023/07/31 06:49:53;;;;;;;4.90;3.60;;;18.30;99.90;;;;;;4984738;28;20958;-90
2023/07/31 06:52:20;;;;;;;7.63;3.80;;;18.20;99.90;;;;;;4982122;28;20456;-91
2023/07/31 06:55:02;;;;;;;9.53;3.67;;;18.30;99.90;;;;;;4994113;28;20422;-91
2023/07/31 06:57:29;;;;;;;9.00;3.40;;;18.30;99.90;;;;;;4995893;28;20421;-90
2023/07/31 06:59:56;;;;;;;7.83;3.77;;;18.30;99.90;;;;;;4995883;28;20482;-91
2023/07/31 07:02:22;;;;;;;5.27;3.43;;;18.30;99.90;;;;;;4991257;28;20460;-90
2023/07/31 07:04:50;;;;;;;7.23;3.90;;;18.30;99.90;;;;;;4994440;28;20490;-91
2023/07/31 07:07:19;;;;;;;7.63;4.00;;;18.40;99.90;;;;;;4987120;28;20997;-91
2023/07/31 07:09:46;;;;;;;7.80;4.20;;;18.40;99.90;;;;;;4995574;28;20460;-90
2023/07/31 07:12:12;;;;;;;9.93;3.63;;;18.50;99.90;;;;;;4981308;28;20836;-90
2023/07/31 07:14:39;;;;;;;10.30;4.10;;;18.50;99.90;;;;;;4979859;28;20452;-91
2023/07/31 07:17:06;;;;;;;7.60;4.10;;;18.60;99.90;;;;;;4985694;28;20456;-90
2023/07/31 07:19:33;;;;;;;9.23;3.90;;;18.70;99.90;;;;;;4983546;28;20471;-91
2023/07/31 07:22:01;;;;;;;6.40;3.87;;;18.70;99.90;;;;;;4995207;28;20451;-91
2023/07/31 07:24:29;;;;;;;6.33;4.10;;;18.80;99.90;;;;;;4989094;28;20484;-89
2023/07/31 07:26:56;;;;;;;7.40;3.60;;;18.80;99.90;;;;;;4994220;28;20506;-90
2023/07/31 07:29:23;;;;;;;9.17;3.97;;;18.80;99.90;;;;;;4982163;28;20483;-90
2023/07/31 07:31:50;;;;;;;8.13;3.77;;;19.00;99.90;;;;;;4981030;28;20526;-90
2023/07/31 07:34:16;;;;;;;8.03;3.87;;;18.90;99.90;;;;;;4977120;28;20471;-90
2023/07/31 07:36:43;;;;;;;8.70;3.70;;;18.90;99.90;;;;;;4991628;28;20871;-90
2023/07/31 07:39:11;;;;;;;10.10;4.03;;;18.90;99.90;;;;;;4983112;28;20862;-90
2023/07/31 07:41:39;;;;;;;7.10;4.40;;;18.90;99.90;;;;;;4990720;28;20836;-90
2023/07/31 07:44:06;;;;;;;10.37;4.23;;;18.70;99.90;;;;;;4994032;28;20537;-90
2023/07/31 07:46:32;;;;;;;8.83;4.10;;;18.80;99.90;;;;;;4994109;28;20459;-91
2023/07/31 07:48:59;;;;;;;8.83;3.93;;;18.90;99.90;;;;;;4985175;28;20476;-90
2023/07/31 07:51:26;;;;;;;8.70;4.00;;;18.90;99.90;;;;;;4989557;28;20502;-92
2023/07/31 07:53:52;;;;;;;11.83;4.80;;;18.80;99.90;;;;;;4986588;28;20452;-91
2023/07/31 07:56:19;;;;;;;6.90;4.07;;;18.80;99.90;;;;;;4989563;28;20455;-91
2023/07/31 07:58:49;;;;;;;8.40;4.10;;;18.90;99.90;;;;;;4995931;28;20434;-91
2023/07/31 08:01:16;;;;;;;9.97;4.57;;;18.90;99.90;;;;;;4994626;28;20451;-91
2023/07/31 08:03:43;;;;;;;11.90;4.37;;;18.90;99.90;;;;;;4994396;28;20446;-91
2023/07/31 08:06:10;;;;;;;6.80;3.83;;;18.90;99.90;;;;;;4994673;28;20534;-93
2023/07/31 08:08:37;;;;;;;7.90;4.40;;;18.90;99.90;;;;;;4990473;28;20463;-91
2023/07/31 08:11:03;;;;;;;6.20;4.27;;;19.00;99.90;;;;;;4994831;28;20523;-91
2023/07/31 08:13:30;;;;;;;9.77;3.60;;;18.90;99.90;;;;;;4995420;28;20443;-92
2023/07/31 08:15:58;;;;;;;10.17;4.40;;;19.10;99.90;;;;;;4995457;28;20456;-92
2023/07/31 08:18:25;;;;;;;8.20;3.50;;;19.10;99.90;;;;;;4994616;28;20526;-91
2023/07/31 08:20:52;;;;;;;8.10;3.73;;;19.20;99.90;;;;;;4995384;28;20451;-91
2023/07/31 08:23:18;;;;;;;8.87;4.10;;;19.20;99.90;;;;;;4995509;28;20455;-92
2023/07/31 08:25:46;;;;;;;7.37;4.23;;;19.20;99.90;;;;;;4996362;28;20479;-91
2023/07/31 08:28:13;;;;;;;6.40;4.20;;;19.20;99.90;;;;;;4995547;28;20509;-92
2023/07/31 08:30:39;;;;;;;11.17;4.40;;;19.30;99.90;;;;;;4987519;28;20483;-92
2023/07/31 08:33:07;;;;;;;9.17;4.00;;;19.40;99.90;;;;;;4973666;28;20441;-91
2023/07/31 08:35:34;;;;;;;8.40;3.90;;;19.50;99.90;;;;;;4973610;28;20959;-92
2023/07/31 08:38:01;;;;;;;11.20;4.07;;;19.50;99.90;;;;;;4993614;28;20467;-92
2023/07/31 08:40:28;;;;;;;8.03;3.83;;;19.80;99.90;;;;;;4988368;28;20514;-90
2023/07/31 08:43:01;;;;;;;10.80;4.67;;;19.70;99.90;;;;;;4975372;28;20965;-92
2023/07/31 08:45:28;;;;;;;10.57;3.90;;;19.70;99.90;;;;;;4993925;28;20483;-91
2023/07/31 08:47:57;;;;;;;7.77;3.97;;;19.80;99.90;;;;;;4985404;28;20894;-91
2023/07/31 08:50:25;;;;;;;11.60;3.83;;;19.90;99.90;;;;;;4984817;28;20459;-90
2023/07/31 08:52:53;;;;;;;9.30;4.00;;;20.20;99.90;;;;;;4992569;28;20455;-90
2023/07/31 08:55:23;;;;;;;9.00;3.80;;;20.30;99.90;;;;;;4986429;28;20946;-89
2023/07/31 08:57:52;;;;;;;8.50;3.87;;;20.10;99.90;;;;;;4994111;28;20486;-90
2023/07/31 09:00:23;;;;;;;7.10;4.33;;;20.10;99.90;;;;;;4978915;28;20538;-90
2023/07/31 09:02:58;;;;;;;6.73;3.70;;;20.10;99.90;;;;;;4994295;28;20471;-89
2023/07/31 09:05:28;;;;;;;6.80;3.33;;;20.10;99.90;;;;;;4980786;28;20530;-89
2023/07/31 09:07:57;;;;;;;9.73;3.37;;;20.00;99.90;;;;;;4983534;28;20471;-89
2023/07/31 09:10:24;;;;;;;8.70;3.97;;;19.90;99.90;;;;;;4994025;28;20456;-89
2023/07/31 09:12:53;;;;;;;12.97;3.90;;;19.90;99.90;;;;;;4993760;28;20447;-89
2023/07/31 09:15:20;;;;;;;11.27;4.30;;;19.80;99.90;;;;;;4989961;28;20452;-89
2023/07/31 09:17:47;;;;;;;9.20;3.80;;;19.50;99.90;;;;;;4991277;28;20486;-89
2023/07/31 09:20:15;;;;;;;8.50;3.93;;;19.40;99.90;;;;;;5009992;28;20447;-88
2023/07/31 09:22:44;;;;;;;8.53;3.70;;;19.30;99.90;;;;;;5017272;28;20447;-90
2023/07/31 09:25:18;;;;;;;9.13;3.80;;;19.30;99.90;;;;;;5002550;28;20996;-89
2023/07/31 09:27:48;;;;;;;7.87;4.23;;;19.20;99.90;;;;;;4992856;28;20530;-89
2023/07/31 09:30:15;;;;;;;6.23;3.93;;;19.10;99.90;;;;;;4990949;28;20452;-87
2023/07/31 09:32:42;;;;;;;11.60;4.13;;;19.00;99.90;;;;;;4987915;28;20571;-88
2023/07/31 09:35:28;;;;;;;9.30;4.07;;;18.90;99.90;;;;;;4989263;28;20510;-88
2023/07/31 09:37:59;;;;;;;11.80;4.37;;;18.80;99.90;;;;;;4990375;28;20931;-88
2023/07/31 09:40:27;;;;;;;6.87;3.80;;;18.80;99.90;;;;;;4988685;28;20460;-87
2023/07/31 09:42:56;;;;;;;10.63;4.23;;;18.90;99.90;;;;;;4983360;28;20495;-91
2023/07/31 09:45:24;;;;;;;7.50;3.87;;;18.90;99.90;;;;;;4993105;28;20486;-88
2023/07/31 09:47:50;;;;;;;3.83;3.37;;;18.90;99.90;;;;;;4992049;28;20466;-88
2023/07/31 09:50:17;;;;;;;10.43;4.10;;;18.80;99.90;;;;;;4973363;28;20504;-88
2023/07/31 09:52:44;;;;;;;5.77;3.80;;;18.80;99.90;;;;;;4986765;28;20873;-88
2023/07/31 09:55:12;;;;;;;11.33;4.47;;;18.70;99.90;;;;;;4987051;28;20459;-88
2023/07/31 09:57:41;;;;;;;4.80;3.90;;;18.60;99.90;;;;;;4997078;28;20903;-89
2023/07/31 10:00:10;;;;;;;7.90;4.70;;;18.60;99.90;;;;;;4995594;28;20543;-87
2023/07/31 10:02:37;;;;;;;5.40;4.50;;;18.50;99.90;;;;;;4995625;28;20892;-89
2023/07/31 10:05:06;;;;;;;7.43;4.23;;;18.60;99.90;;;;;;4995711;28;20517;-88
2023/07/31 10:07:40;;;;;;;7.80;3.87;;;18.60;99.90;;;;;;4983580;28;21126;-88
2023/07/31 10:10:09;;;;;;;8.23;5.20;;;18.60;99.90;;;;;;4979064;28;20543;-89
2023/07/31 10:12:38;;;;;;;8.70;4.20;;;18.50;99.90;;;;;;4995504;28;20551;-88
2023/07/31 10:15:06;;;;;;;7.87;5.17;;;18.50;99.90;;;;;;4994999;28;20447;-89
2023/07/31 10:17:36;;;;;;;8.47;4.43;;;18.50;99.90;;;;;;4994865;28;20463;-88
2023/07/31 10:20:04;;;;;;;7.97;4.73;;;18.50;99.90;;;;;;4995203;28;20443;-89
2023/07/31 10:22:32;;;;;;;8.80;4.80;;;18.60;99.90;;;;;;4994360;28;20460;-89
2023/07/31 10:24:59;;;;;;;7.43;4.60;;;18.70;99.90;;;;;;4983898;28;20940;-90
2023/07/31 10:27:26;;;;;;;4.57;3.70;;;18.80;99.90;;;;;;4995332;28;20447;-90
2023/07/31 10:29:56;;;;;;;7.37;3.83;;;18.80;99.90;;;;;;4992327;28;20453;-89
2023/07/31 10:32:24;;;;;;;8.20;4.30;;;18.90;99.90;;;;;;4986624;28;20805;-90
2023/07/31 10:34:53;;;;;;;7.70;4.13;;;19.00;99.90;;;;;;4994628;28;20459;-87
2023/07/31 10:37:28;;;;;;;5.77;4.00;;;19.20;99.90;;;;;;4991652;28;20472;-88
2023/07/31 10:40:03;;;;;;;10.40;4.67;;;19.10;99.90;;;;;;4991102;28;20996;-88
2023/07/31 10:42:35;;;;;;;8.40;4.30;;;19.20;99.90;;;;;;4995699;28;20458;-89
2023/07/31 10:45:06;;;;;;;7.20;4.50;;;19.20;99.90;;;;;;4995124;28;20496;-90
2023/07/31 10:47:37;;;;;;;8.30;4.27;;;19.30;99.90;;;;;;4981591;28;20952;-88
2023/07/31 10:50:16;;;;;;;13.37;4.57;;;19.40;99.90;;;;;;4992586;28;20451;-88
2023/07/31 10:52:47;;;;;;;13.53;4.67;;;19.50;99.90;;;;;;4996332;28;20524;-89
2023/07/31 10:55:24;;;;;;;11.93;4.37;;;19.60;99.90;;;;;;4981634;28;20464;-90
2023/07/31 10:57:51;;;;;;;7.50;4.77;;;19.90;99.90;;;;;;4990722;28;20474;-89
2023/07/31 11:00:25;;;;;;;11.93;4.50;;;20.00;99.90;;;;;;4996547;28;20451;-89
2023/07/31 11:02:59;;;;;;;8.93;4.50;;;19.90;99.90;;;;;;4995824;28;20449;-90
2023/07/31 11:06:02;;;;;;;7.07;4.40;;;19.90;99.90;;;;;;4993750;28;20482;-90
2023/07/31 11:08:30;;;;;;;12.83;4.90;;;19.90;99.90;;;;;;4883851;29;20467;-90
2023/07/31 11:11:08;;;;;;;9.47;4.77;;;19.80;99.90;;;;;;4976554;28;20827;-89
2023/07/31 11:13:41;;;;;;;5.20;3.97;;;19.70;99.90;;;;;;4996315;28;20543;-90
2023/07/31 11:16:09;;;;;;;8.03;4.10;;;19.80;99.90;;;;;;4985913;28;20445;-90
2023/07/31 11:18:37;;;;;;;10.83;4.60;;;19.90;99.90;;;;;;4990046;28;20467;-89
2023/07/31 11:21:04;;;;;;;7.10;4.30;;;20.10;99.90;;;;;;4994197;28;20511;-90
2023/07/31 11:23:31;;;;;;;12.83;4.93;;;20.20;99.90;;;;;;4975909;28;20456;-89
2023/07/31 11:26:01;;;;;;;11.73;4.17;;;20.20;99.90;;;;;;4985137;28;20505;-90
2023/07/31 11:28:33;;;;;;;8.77;5.00;;;20.30;99.90;;;;;;4996029;28;20477;-89
2023/07/31 11:31:00;;;;;;;6.53;4.23;;;20.20;99.90;;;;;;4987770;28;20476;-89
2023/07/31 11:33:28;;;;;;;7.20;3.70;;;20.30;99.90;;;;;;4995705;28;20462;-90
2023/07/31 11:35:55;;;;;;;7.30;4.17;;;20.40;99.90;;;;;;4995514;28;20463;-90
2023/07/31 11:38:23;;;;;;;8.50;3.83;;;20.50;99.90;;;;;;4978685;28;20980;-89
2023/07/31 11:40:50;;;;;;;7.83;3.83;;;20.70;99.90;;;;;;4994305;28;20487;-90
2023/07/31 11:43:17;;;;;;;9.70;4.33;;;20.70;99.90;;;;;;4994872;28;20455;-87
2023/07/31 11:45:47;;;;;;;9.40;4.67;;;20.80;99.90;;;;;;4994448;28;20479;-89
2023/07/31 11:48:20;;;;;;;7.80;3.77;;;20.80;99.90;;;;;;4994720;28;20479;-89
2023/07/31 11:50:49;;;;;;;6.63;3.53;;;21.10;99.90;;;;;;4984171;28;20873;-89
2023/07/31 11:53:17;;;;;;;7.43;3.70;;;21.10;99.90;;;;;;4979204;28;20448;-89
2023/07/31 11:55:45;;;;;;;10.13;4.07;;;21.10;99.90;;;;;;4994617;28;20851;-89
2023/07/31 11:58:12;;;;;;;8.30;3.70;;;21.00;99.90;;;;;;4994216;28;20566;-90
2023/07/31 12:00:39;;;;;;;5.73;3.80;;;21.00;99.90;;;;;;4995279;28;20502;-90
2023/07/31 12:03:06;;;;;;;9.23;3.47;;;21.10;99.90;;;;;;4995198;28;20482;-89
2023/07/31 12:05:33;;;;;;;10.13;3.80;;;21.20;99.90;;;;;;4992371;28;20482;-90
2023/07/31 12:08:01;;;;;;;8.23;4.13;;;21.40;99.90;;;;;;4982257;28;20529;-89
2023/07/31 12:10:30;;;;;;;8.27;3.73;;;21.50;99.90;;;;;;4993500;28;20773;-89
2023/07/31 12:12:58;;;;;;;6.20;3.53;;;21.50;99.90;;;;;;4994332;28;20447;-89
2023/07/31 12:15:31;;;;;;;7.43;4.20;;;21.70;99.90;;;;;;4995096;28;20447;-89
2023/07/31 12:17:58;;;;;;;6.47;3.40;;;21.80;99.90;;;;;;4987571;28;20476;-90
2023/07/31 12:20:25;;;;;;;5.17;3.47;;;22.00;99.90;;;;;;4994235;28;20957;-90
2023/07/31 12:22:52;;;;;;;5.93;3.67;;;22.00;99.90;;;;;;4996030;28;21020;-90
2023/07/31 12:25:20;;;;;;;9.10;3.80;;;22.00;99.90;;;;;;5017759;28;20470;-91
2023/07/31 12:27:46;;;;;;;8.40;3.57;;;22.10;99.90;;;;;;5017922;28;20466;-87
2023/07/31 12:30:27;;;;;;;6.10;3.60;;;22.00;99.90;;;;;;4996414;28;20475;-89
2023/07/31 12:32:54;;;;;;;9.27;5.00;;;22.00;99.90;;;;;;4994502;28;20454;-90
2023/07/31 12:35:21;;;;;;;12.60;5.47;;;22.00;99.90;;;;;;4994419;28;20880;-90
2023/07/31 12:37:47;;;;;;;5.63;4.17;;;22.00;99.90;;;;;;4994040;28;20495;-88
2023/07/31 12:40:14;;;;;;;7.30;4.03;;;22.10;99.90;;;;;;4993855;28;20439;-87
2023/07/31 12:42:43;;;;;;;5.17;3.73;;;22.30;99.90;;;;;;4993636;28;20513;-90
2023/07/31 12:45:10;;;;;;;4.23;3.30;;;22.40;99.90;;;;;;4993388;28;20432;-89
2023/07/31 12:47:37;;;;;;;9.10;4.20;;;22.50;99.90;;;;;;4985291;28;20598;-90
2023/07/31 12:50:04;;;;;;;4.93;3.50;;;22.50;99.90;;;;;;4978625;28;20459;-89